sensor_id;sensor_type;location;lat;lon;timestamp;P1;durP1;ratioP1;P2;durP2;ratioP2
52268;SDS011;38224;50.950;4.100;2023-04-03T00:01:30;20.00;;;12.02;;
52268;SDS011;38224;50.950;4.100;2023-04-03T00:03:55;19.95;;;11.57;;
52268;SDS011;38224;50.950;4.100;2023-04-03T00:06:21;16.98;;;10.55;;
52268;SDS011;38224;50.950;4.100;2023-04-03T00:08:47;20.95;;;11.15;;
52268;SDS011;38224;50.950;4.100;2023-04-03T00:11:12;14.52;;;10.02;;
52268;SDS011;38224;50.950;4.100;2023-04-03T00:13:37;20.87;;;10.10;;
52268;SDS011;38224;50.950;4.100;2023-04-03T00:16:03;14.25;;;9.10;;
52268;SDS011;38224;50.950;4.100;2023-04-03T00:18:28;16.45;;;10.15;;
52268;SDS011;38224;50.950;4.100;2023-04-03T00:20:54;20.63;;;9.98;;
52268;SDS011;38224;50.950;4.100;2023-04-03T00:23:19;16.55;;;9.25;;
52268;SDS011;38224;50.950;4.100;2023-04-03T00:25:45;13.80;;;9.13;;
52268;SDS011;38224;50.950;4.100;2023-04-03T00:28:10;17.48;;;10.15;;
52268;SDS011;38224;50.950;4.100;2023-04-03T00:30:35;15.30;;;8.32;;
52268;SDS011;38224;50.950;4.100;2023-04-03T00:33:01;18.58;;;9.15;;
52268;SDS011;38224;50.950;4.100;2023-04-03T00:35:26;12.13;;;7.82;;
52268;SDS011;38224;50.950;4.100;2023-04-03T00:37:52;17.08;;;9.07;;
52268;SDS011;38224;50.950;4.100;2023-04-03T00:40:18;16.83;;;9.10;;
52268;SDS011;38224;50.950;4.100;2023-04-03T00:42:43;15.25;;;8.77;;
52268;SDS011;38224;50.950;4.100;2023-04-03T00:47:40;16.20;;;9.85;;
52268;SDS011;38224;50.950;4.100;2023-04-03T00:50:06;20.98;;;10.00;;
52268;SDS011;38224;50.950;4.100;2023-04-03T00:52:31;19.08;;;9.73;;
52268;SDS011;38224;50.950;4.100;2023-04-03T00:54:57;25.08;;;11.13;;
52268;SDS011;38224;50.950;4.100;2023-04-03T00:57:26;20.98;;;11.13;;
52268;SDS011;38224;50.950;4.100;2023-04-03T00:59:52;20.83;;;11.27;;
52268;SDS011;38224;50.950;4.100;2023-04-03T01:02:20;17.23;;;9.90;;
52268;SDS011;38224;50.950;4.100;2023-04-03T01:04:45;23.20;;;11.65;;
52268;SDS011;38224;50.950;4.100;2023-04-03T01:07:15;19.35;;;11.32;;
52268;SDS011;38224;50.950;4.100;2023-04-03T01:09:42;22.83;;;11.73;;
52268;SDS011;38224;50.950;4.100;2023-04-03T01:12:17;19.40;;;11.50;;
52268;SDS011;38224;50.950;4.100;2023-04-03T01:14:43;17.08;;;11.15;;
52268;SDS011;38224;50.950;4.100;2023-04-03T01:17:29;20.92;;;10.27;;
52268;SDS011;38224;50.950;4.100;2023-04-03T01:20:05;17.52;;;10.48;;
52268;SDS011;38224;50.950;4.100;2023-04-03T01:22:34;19.88;;;10.57;;
52268;SDS011;38224;50.950;4.100;2023-04-03T01:25:03;15.93;;;10.25;;
52268;SDS011;38224;50.950;4.100;2023-04-03T01:27:29;18.90;;;11.10;;
52268;SDS011;38224;50.950;4.100;2023-04-03T01:29:54;18.52;;;10.13;;
52268;SDS011;38224;50.950;4.100;2023-04-03T01:32:19;15.68;;;10.52;;
52268;SDS011;38224;50.950;4.100;2023-04-03T01:34:45;19.23;;;10.50;;
52268;SDS011;38224;50.950;4.100;2023-04-03T01:37:10;16.60;;;10.10;;
52268;SDS011;38224;50.950;4.100;2023-04-03T01:39:35;16.58;;;9.90;;
52268;SDS011;38224;50.950;4.100;2023-04-03T01:42:01;16.88;;;10.07;;
52268;SDS011;38224;50.950;4.100;2023-04-03T01:44:26;15.00;;;9.23;;
52268;SDS011;38224;50.950;4.100;2023-04-03T01:46:51;21.30;;;9.50;;
52268;SDS011;38224;50.950;4.100;2023-04-03T01:49:17;15.98;;;9.60;;
52268;SDS011;38224;50.950;4.100;2023-04-03T01:51:42;15.10;;;9.33;;
52268;SDS011;38224;50.950;4.100;2023-04-03T01:54:07;14.80;;;9.88;;
52268;SDS011;38224;50.950;4.100;2023-04-03T01:56:33;17.52;;;9.50;;
52268;SDS011;38224;50.950;4.100;2023-04-03T01:58:58;14.45;;;9.70;;
52268;SDS011;38224;50.950;4.100;2023-04-03T02:01:23;17.20;;;9.20;;
52268;SDS011;38224;50.950;4.100;2023-04-03T02:03:48;15.32;;;9.68;;
52268;SDS011;38224;50.950;4.100;2023-04-03T02:06:14;18.17;;;9.10;;
52268;SDS011;38224;50.950;4.100;2023-04-03T02:08:39;15.65;;;9.07;;
52268;SDS011;38224;50.950;4.100;2023-04-03T02:11:06;13.20;;;8.27;;
52268;SDS011;38224;50.950;4.100;2023-04-03T02:13:31;16.07;;;8.97;;
52268;SDS011;38224;50.950;4.100;2023-04-03T02:15:57;19.20;;;9.63;;
52268;SDS011;38224;50.950;4.100;2023-04-03T02:18:22;17.27;;;8.73;;
52268;SDS011;38224;50.950;4.100;2023-04-03T02:20:47;16.50;;;9.77;;
52268;SDS011;38224;50.950;4.100;2023-04-03T02:23:13;18.80;;;9.70;;
52268;SDS011;38224;50.950;4.100;2023-04-03T02:25:38;15.82;;;8.75;;
52268;SDS011;38224;50.950;4.100;2023-04-03T02:28:03;15.18;;;9.27;;
52268;SDS011;38224;50.950;4.100;2023-04-03T02:30:29;18.08;;;10.48;;
52268;SDS011;38224;50.950;4.100;2023-04-03T02:32:54;16.60;;;10.57;;
52268;SDS011;38224;50.950;4.100;2023-04-03T02:35:19;17.65;;;10.90;;
52268;SDS011;38224;50.950;4.100;2023-04-03T02:37:45;19.70;;;10.85;;
52268;SDS011;38224;50.950;4.100;2023-04-03T02:40:10;18.90;;;10.25;;
52268;SDS011;38224;50.950;4.100;2023-04-03T02:42:36;19.42;;;10.32;;
52268;SDS011;38224;50.950;4.100;2023-04-03T02:45:01;17.58;;;10.30;;
52268;SDS011;38224;50.950;4.100;2023-04-03T02:47:27;19.20;;;10.48;;
52268;SDS011;38224;50.950;4.100;2023-04-03T02:49:53;16.70;;;9.73;;
52268;SDS011;38224;50.950;4.100;2023-04-03T02:52:18;16.23;;;10.07;;
52268;SDS011;38224;50.950;4.100;2023-04-03T02:54:43;17.42;;;10.48;;
52268;SDS011;38224;50.950;4.100;2023-04-03T02:57:09;18.63;;;9.82;;
52268;SDS011;38224;50.950;4.100;2023-04-03T02:59:35;23.02;;;10.70;;
52268;SDS011;38224;50.950;4.100;2023-04-03T03:02:00;17.27;;;10.60;;
52268;SDS011;38224;50.950;4.100;2023-04-03T03:04:26;21.40;;;10.35;;
52268;SDS011;38224;50.950;4.100;2023-04-03T03:06:51;17.33;;;10.32;;
52268;SDS011;38224;50.950;4.100;2023-04-03T03:09:17;18.75;;;10.07;;
52268;SDS011;38224;50.950;4.100;2023-04-03T03:11:42;15.88;;;9.57;;
52268;SDS011;38224;50.950;4.100;2023-04-03T03:14:07;13.57;;;8.98;;
52268;SDS011;38224;50.950;4.100;2023-04-03T03:16:33;15.10;;;9.55;;
52268;SDS011;38224;50.950;4.100;2023-04-03T03:18:58;19.05;;;10.63;;
52268;SDS011;38224;50.950;4.100;2023-04-03T03:21:23;19.03;;;9.30;;
52268;SDS011;38224;50.950;4.100;2023-04-03T03:23:49;16.45;;;10.02;;
52268;SDS011;38224;50.950;4.100;2023-04-03T03:26:14;23.17;;;10.48;;
52268;SDS011;38224;50.950;4.100;2023-04-03T03:28:39;16.65;;;10.23;;
52268;SDS011;38224;50.950;4.100;2023-04-03T03:31:05;15.63;;;10.00;;
52268;SDS011;38224;50.950;4.100;2023-04-03T03:33:31;17.10;;;10.77;;
52268;SDS011;38224;50.950;4.100;2023-04-03T03:35:56;21.95;;;10.82;;
52268;SDS011;38224;50.950;4.100;2023-04-03T03:38:22;15.80;;;11.02;;
52268;SDS011;38224;50.950;4.100;2023-04-03T03:40:48;16.35;;;9.77;;
52268;SDS011;38224;50.950;4.100;2023-04-03T03:43:13;15.68;;;10.18;;
52268;SDS011;38224;50.950;4.100;2023-04-03T03:45:39;17.15;;;10.52;;
52268;SDS011;38224;50.950;4.100;2023-04-03T03:48:04;21.17;;;11.50;;
52268;SDS011;38224;50.950;4.100;2023-04-03T03:50:30;14.90;;;10.25;;
52268;SDS011;38224;50.950;4.100;2023-04-03T03:52:55;19.88;;;10.93;;
52268;SDS011;38224;50.950;4.100;2023-04-03T03:55:20;19.37;;;10.47;;
52268;SDS011;38224;50.950;4.100;2023-04-03T03:57:46;23.05;;;10.98;;
52268;SDS011;38224;50.950;4.100;2023-04-03T04:00:11;16.15;;;11.50;;
52268;SDS011;38224;50.950;4.100;2023-04-03T04:02:36;20.02;;;10.95;;
52268;SDS011;38224;50.950;4.100;2023-04-03T04:05:02;20.17;;;11.15;;
52268;SDS011;38224;50.950;4.100;2023-04-03T04:07:27;18.17;;;11.07;;
52268;SDS011;38224;50.950;4.100;2023-04-03T04:09:54;24.00;;;11.13;;
52268;SDS011;38224;50.950;4.100;2023-04-03T04:12:19;20.10;;;11.07;;
52268;SDS011;38224;50.950;4.100;2023-04-03T04:14:45;19.75;;;12.43;;
52268;SDS011;38224;50.950;4.100;2023-04-03T04:17:11;16.55;;;11.95;;
52268;SDS011;38224;50.950;4.100;2023-04-03T04:19:37;21.73;;;12.15;;
52268;SDS011;38224;50.950;4.100;2023-04-03T04:22:03;19.63;;;11.52;;
52268;SDS011;38224;50.950;4.100;2023-04-03T04:24:28;18.80;;;12.10;;
52268;SDS011;38224;50.950;4.100;2023-04-03T04:26:53;18.50;;;12.90;;
52268;SDS011;38224;50.950;4.100;2023-04-03T04:29:18;23.45;;;13.30;;
52268;SDS011;38224;50.950;4.100;2023-04-03T04:31:44;19.50;;;12.52;;
52268;SDS011;38224;50.950;4.100;2023-04-03T04:34:09;25.07;;;13.23;;
52268;SDS011;38224;50.950;4.100;2023-04-03T04:36:34;27.52;;;14.13;;
52268;SDS011;38224;50.950;4.100;2023-04-03T04:39:00;21.90;;;14.07;;
52268;SDS011;38224;50.950;4.100;2023-04-03T04:41:25;22.55;;;14.57;;
52268;SDS011;38224;50.950;4.100;2023-04-03T04:43:51;24.05;;;13.70;;
52268;SDS011;38224;50.950;4.100;2023-04-03T04:46:17;24.33;;;13.80;;
52268;SDS011;38224;50.950;4.100;2023-04-03T04:48:42;26.40;;;15.18;;
52268;SDS011;38224;50.950;4.100;2023-04-03T04:51:07;26.08;;;14.63;;
52268;SDS011;38224;50.950;4.100;2023-04-03T04:53:32;25.77;;;14.40;;
52268;SDS011;38224;50.950;4.100;2023-04-03T04:55:58;22.90;;;15.15;;
52268;SDS011;38224;50.950;4.100;2023-04-03T04:58:23;21.10;;;13.93;;
52268;SDS011;38224;50.950;4.100;2023-04-03T05:00:48;26.40;;;14.30;;
52268;SDS011;38224;50.950;4.100;2023-04-03T05:03:14;21.42;;;14.40;;
52268;SDS011;38224;50.950;4.100;2023-04-03T05:05:39;19.92;;;14.23;;
52268;SDS011;38224;50.950;4.100;2023-04-03T05:08:05;20.10;;;14.15;;
52268;SDS011;38224;50.950;4.100;2023-04-03T05:10:30;22.55;;;14.90;;
52268;SDS011;38224;50.950;4.100;2023-04-03T05:12:56;25.10;;;15.00;;
52268;SDS011;38224;50.950;4.100;2023-04-03T05:15:21;20.48;;;13.32;;
52268;SDS011;38224;50.950;4.100;2023-04-03T05:17:47;25.10;;;15.60;;
52268;SDS011;38224;50.950;4.100;2023-04-03T05:20:12;25.60;;;15.37;;
52268;SDS011;38224;50.950;4.100;2023-04-03T05:22:37;21.80;;;14.88;;
52268;SDS011;38224;50.950;4.100;2023-04-03T05:25:03;19.85;;;13.52;;
52268;SDS011;38224;50.950;4.100;2023-04-03T05:27:29;25.38;;;13.32;;
52268;SDS011;38224;50.950;4.100;2023-04-03T05:29:54;19.85;;;13.63;;
52268;SDS011;38224;50.950;4.100;2023-04-03T05:32:20;35.03;;;16.70;;
52268;SDS011;38224;50.950;4.100;2023-04-03T05:34:45;29.10;;;14.65;;
52268;SDS011;38224;50.950;4.100;2023-04-03T05:37:10;20.27;;;14.07;;
52268;SDS011;38224;50.950;4.100;2023-04-03T05:39:35;21.83;;;13.13;;
52268;SDS011;38224;50.950;4.100;2023-04-03T05:42:01;22.52;;;13.82;;
52268;SDS011;38224;50.950;4.100;2023-04-03T05:44:26;20.40;;;13.48;;
52268;SDS011;38224;50.950;4.100;2023-04-03T05:46:51;19.85;;;13.70;;
52268;SDS011;38224;50.950;4.100;2023-04-03T05:49:17;19.85;;;13.10;;
52268;SDS011;38224;50.950;4.100;2023-04-03T05:51:42;23.50;;;13.27;;
52268;SDS011;38224;50.950;4.100;2023-04-03T05:54:11;19.38;;;13.82;;
52268;SDS011;38224;50.950;4.100;2023-04-03T05:56:37;23.67;;;15.27;;
52268;SDS011;38224;50.950;4.100;2023-04-03T05:59:03;20.70;;;13.07;;
52268;SDS011;38224;50.950;4.100;2023-04-03T06:01:28;25.77;;;12.93;;
52268;SDS011;38224;50.950;4.100;2023-04-03T06:03:53;18.73;;;12.85;;
52268;SDS011;38224;50.950;4.100;2023-04-03T06:06:19;22.17;;;12.45;;
52268;SDS011;38224;50.950;4.100;2023-04-03T06:08:45;24.85;;;13.95;;
52268;SDS011;38224;50.950;4.100;2023-04-03T06:11:11;26.17;;;12.85;;
52268;SDS011;38224;50.950;4.100;2023-04-03T06:13:36;15.63;;;12.18;;
52268;SDS011;38224;50.950;4.100;2023-04-03T06:16:02;18.08;;;11.95;;
52268;SDS011;38224;50.950;4.100;2023-04-03T06:18:27;18.85;;;11.98;;
52268;SDS011;38224;50.950;4.100;2023-04-03T06:20:52;22.08;;;13.18;;
52268;SDS011;38224;50.950;4.100;2023-04-03T06:23:18;17.07;;;11.97;;
52268;SDS011;38224;50.950;4.100;2023-04-03T06:25:43;16.40;;;9.75;;
52268;SDS011;38224;50.950;4.100;2023-04-03T06:28:08;14.95;;;8.70;;
52268;SDS011;38224;50.950;4.100;2023-04-03T06:30:35;15.43;;;7.97;;
52268;SDS011;38224;50.950;4.100;2023-04-03T06:33:00;13.93;;;7.33;;
52268;SDS011;38224;50.950;4.100;2023-04-03T06:35:25;11.02;;;7.82;;
52268;SDS011;38224;50.950;4.100;2023-04-03T06:37:51;12.20;;;7.07;;
52268;SDS011;38224;50.950;4.100;2023-04-03T06:40:21;12.65;;;7.50;;
52268;SDS011;38224;50.950;4.100;2023-04-03T06:42:47;10.63;;;7.78;;
52268;SDS011;38224;50.950;4.100;2023-04-03T06:45:12;15.75;;;7.03;;
52268;SDS011;38224;50.950;4.100;2023-04-03T06:47:37;14.43;;;6.47;;
52268;SDS011;38224;50.950;4.100;2023-04-03T06:50:02;11.53;;;6.37;;
52268;SDS011;38224;50.950;4.100;2023-04-03T06:52:28;11.10;;;6.70;;
52268;SDS011;38224;50.950;4.100;2023-04-03T06:54:53;8.75;;;5.72;;
52268;SDS011;38224;50.950;4.100;2023-04-03T06:57:22;17.05;;;6.45;;
52268;SDS011;38224;50.950;4.100;2023-04-03T06:59:47;10.40;;;5.95;;
52268;SDS011;38224;50.950;4.100;2023-04-03T07:02:12;8.00;;;5.70;;
52268;SDS011;38224;50.950;4.100;2023-04-03T07:04:38;14.93;;;6.00;;
52268;SDS011;38224;50.950;4.100;2023-04-03T07:07:03;10.98;;;6.32;;
52268;SDS011;38224;50.950;4.100;2023-04-03T07:09:28;9.83;;;5.73;;
52268;SDS011;38224;50.950;4.100;2023-04-03T07:11:54;10.40;;;6.45;;
52268;SDS011;38224;50.950;4.100;2023-04-03T07:14:19;10.38;;;5.88;;
52268;SDS011;38224;50.950;4.100;2023-04-03T07:16:46;11.68;;;6.57;;
52268;SDS011;38224;50.950;4.100;2023-04-03T07:19:11;9.70;;;6.28;;
52268;SDS011;38224;50.950;4.100;2023-04-03T07:21:36;9.45;;;5.90;;
52268;SDS011;38224;50.950;4.100;2023-04-03T07:24:02;14.27;;;6.53;;
52268;SDS011;38224;50.950;4.100;2023-04-03T07:26:27;13.20;;;7.20;;
52268;SDS011;38224;50.950;4.100;2023-04-03T07:28:52;10.75;;;6.45;;
52268;SDS011;38224;50.950;4.100;2023-04-03T07:31:18;10.47;;;6.10;;
52268;SDS011;38224;50.950;4.100;2023-04-03T07:33:43;11.55;;;5.97;;
52268;SDS011;38224;50.950;4.100;2023-04-03T07:36:10;10.30;;;6.05;;
52268;SDS011;38224;50.950;4.100;2023-04-03T07:38:36;11.43;;;5.57;;
52268;SDS011;38224;50.950;4.100;2023-04-03T07:41:02;10.27;;;5.75;;
52268;SDS011;38224;50.950;4.100;2023-04-03T07:43:28;9.90;;;5.30;;
52268;SDS011;38224;50.950;4.100;2023-04-03T07:45:53;12.70;;;5.30;;
52268;SDS011;38224;50.950;4.100;2023-04-03T07:48:23;11.35;;;5.93;;
52268;SDS011;38224;50.950;4.100;2023-04-03T07:50:49;10.43;;;6.28;;
52268;SDS011;38224;50.950;4.100;2023-04-03T07:53:14;11.07;;;5.38;;
52268;SDS011;38224;50.950;4.100;2023-04-03T07:55:40;11.85;;;5.85;;
52268;SDS011;38224;50.950;4.100;2023-04-03T07:58:11;10.48;;;5.80;;
52268;SDS011;38224;50.950;4.100;2023-04-03T08:00:38;8.85;;;5.35;;
52268;SDS011;38224;50.950;4.100;2023-04-03T08:03:03;10.35;;;5.55;;
52268;SDS011;38224;50.950;4.100;2023-04-03T08:05:29;11.38;;;5.30;;
52268;SDS011;38224;50.950;4.100;2023-04-03T08:07:54;7.45;;;5.10;;
52268;SDS011;38224;50.950;4.100;2023-04-03T08:10:19;9.38;;;5.38;;
52268;SDS011;38224;50.950;4.100;2023-04-03T08:12:46;10.50;;;4.97;;
52268;SDS011;38224;50.950;4.100;2023-04-03T08:15:11;10.93;;;5.70;;
52268;SDS011;38224;50.950;4.100;2023-04-03T08:17:36;8.40;;;5.27;;
52268;SDS011;38224;50.950;4.100;2023-04-03T08:20:02;8.80;;;4.90;;
52268;SDS011;38224;50.950;4.100;2023-04-03T08:22:28;10.60;;;4.90;;
52268;SDS011;38224;50.950;4.100;2023-04-03T08:24:54;8.75;;;4.70;;
52268;SDS011;38224;50.950;4.100;2023-04-03T08:27:19;7.80;;;5.18;;
52268;SDS011;38224;50.950;4.100;2023-04-03T08:29:45;9.30;;;5.30;;
52268;SDS011;38224;50.950;4.100;2023-04-03T08:32:10;12.13;;;5.25;;
52268;SDS011;38224;50.950;4.100;2023-04-03T08:34:35;8.68;;;4.25;;
52268;SDS011;38224;50.950;4.100;2023-04-03T08:37:03;15.75;;;5.00;;
52268;SDS011;38224;50.950;4.100;2023-04-03T08:39:28;7.40;;;4.30;;
52268;SDS011;38224;50.950;4.100;2023-04-03T08:41:55;8.60;;;4.68;;
52268;SDS011;38224;50.950;4.100;2023-04-03T08:49:53;12.30;;;4.38;;
52268;SDS011;38224;50.950;4.100;2023-04-03T08:52:24;8.73;;;4.18;;
52268;SDS011;38224;50.950;4.100;2023-04-03T08:54:54;7.80;;;4.47;;
52268;SDS011;38224;50.950;4.100;2023-04-03T08:57:23;10.38;;;4.65;;
52268;SDS011;38224;50.950;4.100;2023-04-03T08:59:50;9.45;;;4.35;;
52268;SDS011;38224;50.950;4.100;2023-04-03T09:02:24;7.78;;;3.95;;
52268;SDS011;38224;50.950;4.100;2023-04-03T09:04:51;9.20;;;4.28;;
52268;SDS011;38224;50.950;4.100;2023-04-03T09:07:19;11.05;;;4.70;;
52268;SDS011;38224;50.950;4.100;2023-04-03T09:09:47;11.32;;;4.82;;
52268;SDS011;38224;50.950;4.100;2023-04-03T09:12:17;6.72;;;4.03;;
52268;SDS011;38224;50.950;4.100;2023-04-03T09:17:28;7.35;;;4.20;;
52268;SDS011;38224;50.950;4.100;2023-04-03T09:20:01;8.20;;;4.10;;
52268;SDS011;38224;50.950;4.100;2023-04-03T09:22:28;8.05;;;3.60;;
52268;SDS011;38224;50.950;4.100;2023-04-03T09:25:09;12.15;;;4.18;;
52268;SDS011;38224;50.950;4.100;2023-04-03T09:27:36;9.25;;;3.50;;
52268;SDS011;38224;50.950;4.100;2023-04-03T09:30:02;8.63;;;3.95;;
52268;SDS011;38224;50.950;4.100;2023-04-03T09:32:31;18.02;;;3.50;;
52268;SDS011;38224;50.950;4.100;2023-04-03T09:35:19;7.78;;;3.80;;
52268;SDS011;38224;50.950;4.100;2023-04-03T09:37:47;10.20;;;3.70;;
52268;SDS011;38224;50.950;4.100;2023-04-03T09:42:51;7.38;;;3.30;;
52268;SDS011;38224;50.950;4.100;2023-04-03T09:45:25;9.75;;;3.47;;
52268;SDS011;38224;50.950;4.100;2023-04-03T09:48:05;10.20;;;3.30;;
52268;SDS011;38224;50.950;4.100;2023-04-03T09:50:32;6.75;;;3.00;;
52268;SDS011;38224;50.950;4.100;2023-04-03T09:52:57;8.10;;;2.83;;
52268;SDS011;38224;50.950;4.100;2023-04-03T09:55:23;7.13;;;2.67;;
52268;SDS011;38224;50.950;4.100;2023-04-03T09:57:58;4.60;;;2.55;;
52268;SDS011;38224;50.950;4.100;2023-04-03T10:00:28;11.85;;;3.03;;
52268;SDS011;38224;50.950;4.100;2023-04-03T10:02:56;9.73;;;2.80;;
52268;SDS011;38224;50.950;4.100;2023-04-03T10:05:32;6.75;;;2.63;;
52268;SDS011;38224;50.950;4.100;2023-04-03T10:10:40;5.35;;;2.55;;
52268;SDS011;38224;50.950;4.100;2023-04-03T10:15:43;6.05;;;2.45;;
52268;SDS011;38224;50.950;4.100;2023-04-03T10:21:20;5.88;;;2.65;;
52268;SDS011;38224;50.950;4.100;2023-04-03T10:23:49;4.68;;;2.40;;
52268;SDS011;38224;50.950;4.100;2023-04-03T10:26:29;8.68;;;3.50;;
52268;SDS011;38224;50.950;4.100;2023-04-03T10:31:34;6.80;;;2.90;;
52268;SDS011;38224;50.950;4.100;2023-04-03T10:36:34;10.93;;;2.80;;
52268;SDS011;38224;50.950;4.100;2023-04-03T10:44:20;6.40;;;2.40;;
52268;SDS011;38224;50.950;4.100;2023-04-03T10:52:22;6.80;;;2.67;;
52268;SDS011;38224;50.950;4.100;2023-04-03T10:57:17;6.75;;;2.28;;
52268;SDS011;38224;50.950;4.100;2023-04-03T10:59:45;11.35;;;2.70;;
52268;SDS011;38224;50.950;4.100;2023-04-03T11:02:14;6.78;;;2.60;;
52268;SDS011;38224;50.950;4.100;2023-04-03T11:04:41;4.32;;;2.10;;
52268;SDS011;38224;50.950;4.100;2023-04-03T11:07:15;7.82;;;2.67;;
52268;SDS011;38224;50.950;4.100;2023-04-03T11:09:43;6.28;;;2.75;;
52268;SDS011;38224;50.950;4.100;2023-04-03T11:12:25;9.40;;;1.98;;
52268;SDS011;38224;50.950;4.100;2023-04-03T11:14:52;6.60;;;2.20;;
52268;SDS011;38224;50.950;4.100;2023-04-03T11:19:48;8.48;;;2.20;;
52268;SDS011;38224;50.950;4.100;2023-04-03T11:22:32;5.88;;;2.38;;
52268;SDS011;38224;50.950;4.100;2023-04-03T11:27:33;4.78;;;2.03;;
52268;SDS011;38224;50.950;4.100;2023-04-03T11:29:59;6.82;;;2.22;;
52268;SDS011;38224;50.950;4.100;2023-04-03T11:35:00;4.45;;;2.00;;
52268;SDS011;38224;50.950;4.100;2023-04-03T11:37:34;6.00;;;1.88;;
52268;SDS011;38224;50.950;4.100;2023-04-03T11:42:38;4.85;;;1.90;;
52268;SDS011;38224;50.950;4.100;2023-04-03T11:45:17;6.07;;;2.00;;
52268;SDS011;38224;50.950;4.100;2023-04-03T11:47:55;5.68;;;2.20;;
52268;SDS011;38224;50.950;4.100;2023-04-03T12:14:16;6.40;;;2.13;;
52268;SDS011;38224;50.950;4.100;2023-04-03T12:21:16;5.18;;;1.90;;
52268;SDS011;38224;50.950;4.100;2023-04-03T12:26:21;9.57;;;2.13;;
52268;SDS011;38224;50.950;4.100;2023-04-03T12:28:47;6.50;;;1.88;;
52268;SDS011;38224;50.950;4.100;2023-04-03T12:31:13;6.10;;;1.98;;
52268;SDS011;38224;50.950;4.100;2023-04-03T12:46:59;5.93;;;1.85;;
52268;SDS011;38224;50.950;4.100;2023-04-03T12:51:56;11.48;;;2.50;;
52268;SDS011;38224;50.950;4.100;2023-04-03T12:54:38;8.18;;;1.90;;
52268;SDS011;38224;50.950;4.100;2023-04-03T12:59:48;4.03;;;2.00;;
52268;SDS011;38224;50.950;4.100;2023-04-03T13:04:42;7.15;;;2.17;;
52268;SDS011;38224;50.950;4.100;2023-04-03T13:07:17;10.87;;;1.70;;
52268;SDS011;38224;50.950;4.100;2023-04-03T13:09:43;4.25;;;2.00;;
52268;SDS011;38224;50.950;4.100;2023-04-03T13:12:10;5.87;;;2.23;;
52268;SDS011;38224;50.950;4.100;2023-04-03T13:14:36;2.03;;;1.42;;
52268;SDS011;38224;50.950;4.100;2023-04-03T13:17:15;4.68;;;2.22;;
52268;SDS011;38224;50.950;4.100;2023-04-03T13:19:41;4.10;;;1.88;;
52268;SDS011;38224;50.950;4.100;2023-04-03T13:24:48;3.22;;;1.65;;
52268;SDS011;38224;50.950;4.100;2023-04-03T13:27:14;2.67;;;1.67;;
52268;SDS011;38224;50.950;4.100;2023-04-03T13:29:40;3.60;;;2.03;;
52268;SDS011;38224;50.950;4.100;2023-04-03T13:32:06;2.40;;;1.67;;
52268;SDS011;38224;50.950;4.100;2023-04-03T13:34:36;3.75;;;1.70;;
52268;SDS011;38224;50.950;4.100;2023-04-03T13:37:01;3.25;;;1.70;;
52268;SDS011;38224;50.950;4.100;2023-04-03T13:39:35;4.22;;;1.70;;
52268;SDS011;38224;50.950;4.100;2023-04-03T13:42:24;4.50;;;1.60;;
52268;SDS011;38224;50.950;4.100;2023-04-03T13:44:47;5.22;;;2.33;;
52268;SDS011;38224;50.950;4.100;2023-04-03T13:47:17;3.47;;;1.65;;
52268;SDS011;38224;50.950;4.100;2023-04-03T14:03:02;4.82;;;2.13;;
52268;SDS011;38224;50.950;4.100;2023-04-03T14:05:28;4.05;;;2.00;;
52268;SDS011;38224;50.950;4.100;2023-04-03T14:07:53;5.40;;;2.10;;
52268;SDS011;38224;50.950;4.100;2023-04-03T14:10:19;6.18;;;1.75;;
52268;SDS011;38224;50.950;4.100;2023-04-03T14:12:45;4.15;;;1.98;;
52268;SDS011;38224;50.950;4.100;2023-04-03T14:15:18;5.00;;;2.03;;
52268;SDS011;38224;50.950;4.100;2023-04-03T14:17:44;5.72;;;1.90;;
52268;SDS011;38224;50.950;4.100;2023-04-03T14:20:14;3.33;;;2.03;;
52268;SDS011;38224;50.950;4.100;2023-04-03T14:22:39;5.18;;;2.10;;
52268;SDS011;38224;50.950;4.100;2023-04-03T14:25:09;2.63;;;1.70;;
52268;SDS011;38224;50.950;4.100;2023-04-03T14:27:35;5.67;;;2.33;;
52268;SDS011;38224;50.950;4.100;2023-04-03T14:30:01;3.50;;;1.90;;
52268;SDS011;38224;50.950;4.100;2023-04-03T14:32:28;4.07;;;2.00;;
52268;SDS011;38224;50.950;4.100;2023-04-03T14:34:53;5.78;;;2.30;;
52268;SDS011;38224;50.950;4.100;2023-04-03T14:37:24;4.95;;;1.90;;
52268;SDS011;38224;50.950;4.100;2023-04-03T14:39:51;6.82;;;2.28;;
52268;SDS011;38224;50.950;4.100;2023-04-03T14:42:21;6.45;;;1.65;;
52268;SDS011;38224;50.950;4.100;2023-04-03T14:44:47;11.48;;;3.10;;
52268;SDS011;38224;50.950;4.100;2023-04-03T14:47:17;7.38;;;2.22;;
52268;SDS011;38224;50.950;4.100;2023-04-03T14:49:43;7.22;;;2.17;;
52268;SDS011;38224;50.950;4.100;2023-04-03T14:52:25;3.90;;;1.92;;
52268;SDS011;38224;50.950;4.100;2023-04-03T14:54:51;3.87;;;2.10;;
52268;SDS011;38224;50.950;4.100;2023-04-03T14:57:16;6.05;;;2.33;;
52268;SDS011;38224;50.950;4.100;2023-04-03T14:59:43;5.68;;;2.30;;
52268;SDS011;38224;50.950;4.100;2023-04-03T15:02:25;4.97;;;2.65;;
52268;SDS011;38224;50.950;4.100;2023-04-03T15:04:51;5.73;;;2.07;;
52268;SDS011;38224;50.950;4.100;2023-04-03T15:07:16;4.07;;;2.35;;
52268;SDS011;38224;50.950;4.100;2023-04-03T15:09:41;3.47;;;2.03;;
52268;SDS011;38224;50.950;4.100;2023-04-03T15:12:07;10.82;;;2.47;;
52268;SDS011;38224;50.950;4.100;2023-04-03T15:14:33;5.03;;;1.70;;
52268;SDS011;38224;50.950;4.100;2023-04-03T15:16:58;5.93;;;2.07;;
52268;SDS011;38224;50.950;4.100;2023-04-03T15:19:23;6.45;;;2.13;;
52268;SDS011;38224;50.950;4.100;2023-04-03T15:21:49;4.35;;;2.30;;
52268;SDS011;38224;50.950;4.100;2023-04-03T15:24:14;4.57;;;1.73;;
52268;SDS011;38224;50.950;4.100;2023-04-03T15:26:40;3.30;;;1.77;;
52268;SDS011;38224;50.950;4.100;2023-04-03T15:29:06;7.10;;;1.95;;
52268;SDS011;38224;50.950;4.100;2023-04-03T15:31:32;5.10;;;1.92;;
52268;SDS011;38224;50.950;4.100;2023-04-03T15:33:57;4.63;;;1.90;;
52268;SDS011;38224;50.950;4.100;2023-04-03T15:36:22;4.17;;;1.87;;
52268;SDS011;38224;50.950;4.100;2023-04-03T15:38:47;6.90;;;2.00;;
52268;SDS011;38224;50.950;4.100;2023-04-03T15:41:13;4.27;;;1.77;;
52268;SDS011;38224;50.950;4.100;2023-04-03T15:43:38;4.22;;;2.13;;
52268;SDS011;38224;50.950;4.100;2023-04-03T15:46:03;5.53;;;2.07;;
52268;SDS011;38224;50.950;4.100;2023-04-03T15:48:29;6.57;;;2.30;;
52268;SDS011;38224;50.950;4.100;2023-04-03T15:50:55;5.72;;;1.98;;
52268;SDS011;38224;50.950;4.100;2023-04-03T15:53:21;4.63;;;2.05;;
52268;SDS011;38224;50.950;4.100;2023-04-03T15:55:46;5.80;;;2.07;;
52268;SDS011;38224;50.950;4.100;2023-04-03T15:58:11;3.70;;;2.00;;
52268;SDS011;38224;50.950;4.100;2023-04-03T16:00:37;6.60;;;1.95;;
52268;SDS011;38224;50.950;4.100;2023-04-03T16:03:07;9.00;;;1.70;;
52268;SDS011;38224;50.950;4.100;2023-04-03T16:05:33;4.57;;;1.85;;
52268;SDS011;38224;50.950;4.100;2023-04-03T16:08:00;4.65;;;1.77;;
52268;SDS011;38224;50.950;4.100;2023-04-03T16:10:25;4.43;;;1.65;;
52268;SDS011;38224;50.950;4.100;2023-04-03T16:12:51;6.45;;;2.00;;
52268;SDS011;38224;50.950;4.100;2023-04-03T16:15:16;4.55;;;2.38;;
52268;SDS011;38224;50.950;4.100;2023-04-03T16:17:41;3.92;;;1.50;;
52268;SDS011;38224;50.950;4.100;2023-04-03T16:20:07;3.15;;;1.77;;
52268;SDS011;38224;50.950;4.100;2023-04-03T16:22:33;4.55;;;2.10;;
52268;SDS011;38224;50.950;4.100;2023-04-03T16:24:59;3.38;;;1.92;;
52268;SDS011;38224;50.950;4.100;2023-04-03T16:27:24;3.17;;;1.77;;
52268;SDS011;38224;50.950;4.100;2023-04-03T16:29:53;4.57;;;1.95;;
52268;SDS011;38224;50.950;4.100;2023-04-03T16:32:18;3.67;;;1.92;;